createdAt,value
2019-01-31T00:04:24.179Z,1.30
2019-01-31T00:09:34.852Z,1.40
2019-01-31T00:14:45.624Z,1.30
2019-01-31T00:20:10.678Z,1.40
2019-01-31T00:25:18.404Z,1.20
2019-01-31T00:30:28.888Z,1.50
2019-01-31T00:35:37.012Z,1.40
2019-01-31T00:41:00.418Z,1.40
2019-01-31T00:46:29.621Z,1.40
2019-01-31T00:51:40.359Z,1.13
2019-01-31T00:56:54.456Z,1.27
2019-01-31T01:01:59.440Z,1.17
2019-01-31T01:07:13.709Z,1.20
2019-01-31T01:12:37.114Z,1.13
2019-01-31T01:17:45.186Z,1.00
2019-01-31T01:22:50.087Z,1.67
2019-01-31T01:28:03.508Z,1.20
2019-01-31T02:28:16.309Z,2.07
2019-01-31T02:33:30.369Z,1.60
2019-01-31T02:38:38.293Z,2.20
2019-01-31T02:43:46.230Z,1.70
2019-01-31T02:49:12.648Z,1.60
2019-01-31T02:54:23.833Z,1.70
2019-01-31T02:59:41.056Z,1.90
2019-01-31T03:05:02.592Z,2.17
2019-01-31T03:10:16.491Z,1.80
2019-01-31T03:15:36.554Z,2.00
2019-01-31T03:20:50.384Z,1.90
2019-01-31T03:26:00.662Z,2.90
2019-01-31T03:31:14.510Z,1.97
2019-01-31T03:36:19.495Z,2.17
2019-01-31T03:41:30.619Z,1.87
2019-01-31T03:46:41.703Z,2.00
2019-01-31T03:52:03.204Z,1.83
2019-01-31T03:57:25.204Z,1.80
2019-01-31T04:02:30.278Z,2.07
2019-01-31T04:07:31.371Z,1.53
2019-01-31T04:12:32.457Z,1.50
2019-01-31T04:17:33.756Z,1.40
2019-01-31T04:22:34.929Z,1.77
2019-01-31T04:27:36.083Z,1.57
2019-01-31T04:32:37.216Z,1.40
2019-01-31T04:37:38.497Z,1.30
2019-01-31T04:42:39.594Z,1.40
2019-01-31T04:47:40.691Z,1.80
2019-01-31T04:52:41.775Z,1.67
2019-01-31T04:57:42.878Z,1.17
2019-01-31T05:02:44.068Z,1.20
2019-01-31T05:07:45.165Z,1.00
2019-01-31T05:12:46.264Z,1.37
2019-01-31T05:17:47.364Z,1.37
2019-01-31T05:22:48.473Z,1.07
2019-01-31T05:27:49.575Z,1.20
2019-01-31T05:32:50.685Z,2.00
2019-01-31T05:37:51.752Z,3.50
2019-01-31T05:42:52.853Z,5.07
2019-01-31T05:47:53.954Z,2.57
2019-01-31T05:52:55.050Z,1.57
2019-01-31T05:57:56.143Z,1.00
2019-01-31T06:02:57.238Z,1.50
2019-01-31T06:07:58.336Z,2.40
2019-01-31T06:12:59.448Z,4.50
2019-01-31T06:18:00.636Z,1.93
2019-01-31T06:23:01.727Z,2.30
2019-01-31T06:28:03.620Z,3.70
2019-01-31T06:33:04.735Z,2.00
2019-01-31T06:38:05.822Z,1.67
2019-01-31T06:43:07.110Z,2.07
2019-01-31T06:48:08.318Z,2.40
2019-01-31T06:53:09.424Z,2.00
2019-01-31T06:58:10.602Z,2.00
2019-01-31T07:03:11.899Z,0.90
2019-01-31T07:08:13.195Z,1.20
2019-01-31T07:13:14.300Z,1.13
2019-01-31T07:18:17.573Z,1.13
2019-01-31T07:23:18.767Z,1.17
2019-01-31T07:28:20.442Z,1.40
2019-01-31T07:33:21.636Z,1.50
2019-01-31T07:38:22.723Z,1.23
2019-01-31T07:43:23.815Z,1.40
2019-01-31T07:48:24.911Z,1.53
2019-01-31T07:53:26.123Z,2.10
2019-01-31T07:58:27.217Z,2.67
2019-01-31T08:03:30.208Z,2.10
2019-01-31T08:08:31.303Z,2.30
2019-01-31T08:13:32.399Z,3.40
2019-01-31T08:18:33.508Z,1.73
2019-01-31T08:23:37.687Z,1.60
2019-01-31T08:28:38.858Z,1.83
2019-01-31T08:33:39.943Z,1.30
2019-01-31T08:38:41.032Z,2.00
2019-01-31T08:43:42.121Z,1.20
2019-01-31T08:48:43.234Z,1.13
2019-01-31T08:53:44.387Z,1.57
2019-01-31T08:58:45.779Z,2.70
2019-01-31T09:03:46.924Z,2.20
2019-01-31T09:08:48.126Z,1.90
2019-01-31T09:13:49.261Z,1.20
2019-01-31T09:18:50.457Z,1.47
2019-01-31T09:24:12.487Z,1.63
2019-01-31T09:29:23.599Z,0.90
2019-01-31T09:34:31.223Z,0.90
2019-01-31T09:39:48.364Z,0.90
2019-01-31T09:44:59.360Z,0.60
2019-01-31T09:50:07.012Z,1.17
2019-01-31T09:55:26.760Z,2.83
2019-01-31T10:00:31.665Z,0.70
2019-01-31T10:05:39.092Z,1.60
2019-01-31T10:11:02.413Z,3.30
2019-01-31T10:16:21.994Z,1.83
2019-01-31T10:21:42.205Z,1.47
2019-01-31T10:27:05.500Z,1.40
2019-01-31T10:32:18.816Z,1.10
2019-01-31T10:37:38.840Z,1.00
2019-01-31T10:43:00.367Z,0.80
2019-01-31T10:48:14.412Z,1.17
2019-01-31T10:53:30.764Z,1.00
2019-01-31T10:59:04.712Z,2.07
2019-01-31T11:04:38.933Z,1.10
2019-01-31T11:10:00.629Z,1.20
2019-01-31T11:15:30.398Z,0.90
2019-01-31T11:20:38.257Z,1.30
2019-01-31T11:26:13.896Z,0.60
2019-01-31T11:31:40.228Z,1.20
2019-01-31T11:37:00.451Z,1.23
2019-01-31T11:42:11.387Z,0.80
2019-01-31T11:47:45.539Z,0.80
2019-01-31T11:53:13.324Z,1.33
2019-01-31T11:58:24.618Z,1.73
2019-01-31T12:03:28.369Z,1.70
2019-01-31T12:08:31.326Z,1.80
2019-01-31T12:13:33.205Z,0.80
2019-01-31T12:18:34.590Z,1.40
2019-01-31T12:23:35.794Z,0.60
2019-01-31T12:28:37.007Z,0.77
2019-01-31T12:33:38.672Z,0.80
2019-01-31T12:38:39.764Z,0.90
2019-01-31T12:43:41.078Z,1.30
2019-01-31T12:48:42.346Z,1.00
2019-01-31T12:53:43.552Z,0.83
2019-01-31T12:58:44.751Z,0.70
2019-01-31T13:03:45.987Z,0.70
2019-01-31T13:08:47.820Z,1.00
2019-01-31T13:13:48.915Z,0.67
2019-01-31T13:18:50.036Z,0.60
2019-01-31T13:23:52.554Z,0.50
2019-01-31T13:28:53.711Z,1.10
2019-01-31T13:33:54.967Z,1.80
2019-01-31T13:38:56.077Z,1.93
2019-01-31T13:43:58.043Z,1.97
2019-01-31T13:48:59.416Z,1.97
2019-01-31T13:54:00.625Z,1.50
2019-01-31T13:59:01.831Z,1.83
2019-01-31T14:04:03.235Z,1.60
2019-01-31T14:09:06.153Z,2.00
2019-01-31T14:14:09.066Z,2.17
2019-01-31T14:19:10.261Z,1.93
2019-01-31T14:24:11.599Z,2.83
2019-01-31T14:29:12.721Z,1.43
2019-01-31T14:34:13.847Z,1.83
2019-01-31T14:39:14.968Z,1.60
2019-01-31T14:44:20.686Z,1.50
2019-01-31T14:49:19.147Z,2.60
2019-01-31T14:54:20.270Z,2.03
2019-01-31T14:59:21.402Z,1.50
2019-01-31T15:04:22.620Z,1.60
2019-01-31T15:09:23.816Z,1.53
2019-01-31T15:14:31.442Z,0.93
2019-01-31T15:19:27.910Z,1.50
2019-01-31T15:24:29.008Z,1.50
2019-01-31T15:29:30.140Z,1.90
2019-01-31T15:34:31.270Z,2.50
2019-01-31T15:39:32.366Z,1.90
2019-01-31T15:44:43.074Z,2.30
2019-01-31T15:49:36.660Z,2.10
2019-01-31T15:54:37.781Z,2.00
2019-01-31T15:59:38.985Z,3.40
2019-01-31T16:04:40.201Z,2.30
2019-01-31T16:09:41.314Z,5.63
2019-01-31T16:14:42.427Z,9.10
2019-01-31T16:19:43.818Z,3.87
2019-01-31T16:24:44.977Z,3.20
2019-01-31T16:29:46.205Z,3.13
2019-01-31T16:34:49.969Z,3.03
2019-01-31T16:39:55.423Z,4.40
2019-01-31T16:45:06.377Z,3.40
2019-01-31T16:49:59.551Z,4.53
2019-01-31T16:55:02.573Z,4.57
2019-01-31T17:00:10.544Z,5.53
2019-01-31T17:05:15.052Z,4.10
2019-01-31T17:10:16.336Z,6.20
2019-01-31T17:15:18.719Z,3.60
2019-01-31T17:20:23.649Z,4.07
2019-01-31T17:25:25.468Z,3.37
2019-01-31T17:30:28.014Z,3.00
2019-01-31T17:35:29.368Z,4.10
2019-01-31T17:40:33.076Z,3.20
2019-01-31T17:45:34.300Z,3.70
2019-01-31T17:50:35.520Z,4.60
2019-01-31T17:55:36.790Z,8.03
2019-01-31T18:00:53.068Z,7.43
2019-01-31T18:05:54.289Z,4.87
2019-01-31T18:10:56.572Z,8.10
2019-01-31T18:15:57.800Z,8.20
2019-01-31T18:20:59.120Z,7.53
2019-01-31T18:26:00.263Z,6.07
2019-01-31T18:31:01.499Z,4.33
2019-01-31T18:36:02.760Z,3.93
2019-01-31T18:41:04.022Z,3.57
2019-01-31T18:46:05.507Z,4.77
2019-01-31T18:51:06.721Z,4.57
2019-01-31T18:56:07.975Z,4.20
2019-01-31T19:01:09.457Z,3.60
2019-01-31T19:06:12.516Z,3.87
2019-01-31T19:11:13.834Z,3.70
2019-01-31T19:16:15.183Z,4.20
2019-01-31T19:21:16.321Z,3.93
2019-01-31T19:26:17.474Z,5.00
2019-01-31T19:31:19.527Z,5.00
2019-01-31T19:36:21.936Z,5.80
2019-01-31T19:41:23.041Z,4.03
2019-01-31T19:46:24.201Z,3.17
2019-01-31T19:51:25.343Z,3.97
2019-01-31T19:56:26.626Z,3.57
2019-01-31T20:01:27.950Z,3.17
2019-01-31T20:06:29.196Z,3.03
2019-01-31T20:11:30.368Z,3.07
2019-01-31T20:16:31.705Z,3.50
2019-01-31T20:21:35.947Z,3.30
2019-01-31T20:26:37.191Z,3.37
2019-01-31T20:31:38.479Z,2.97
2019-01-31T20:36:39.866Z,2.20
2019-01-31T20:41:41.179Z,2.27
2019-01-31T20:46:42.316Z,2.00
2019-01-31T20:51:43.576Z,2.17
2019-01-31T20:56:44.824Z,2.17
2019-01-31T21:01:46.031Z,1.60
2019-01-31T21:06:47.255Z,1.80
2019-01-31T21:11:48.593Z,2.00
2019-01-31T21:16:51.752Z,1.90
2019-01-31T21:21:53.063Z,1.90
2019-01-31T21:26:54.178Z,1.67
2019-01-31T21:31:55.422Z,2.10
2019-01-31T21:36:56.622Z,1.43
2019-01-31T21:41:58.048Z,2.00
2019-01-31T21:47:03.418Z,2.10
2019-01-31T21:52:02.319Z,2.30
2019-01-31T21:57:03.967Z,2.43
2019-01-31T22:02:05.419Z,2.30
2019-01-31T22:07:06.524Z,2.43
2019-01-31T22:12:07.734Z,2.30
2019-01-31T22:17:14.858Z,2.47
2019-01-31T22:22:12.047Z,2.47
2019-01-31T22:27:13.207Z,2.40
2019-01-31T22:32:14.323Z,2.23
2019-01-31T22:37:15.423Z,2.47
2019-01-31T22:42:16.527Z,2.17
2019-01-31T22:47:25.944Z,2.13
2019-01-31T22:52:20.628Z,2.60
2019-01-31T22:57:21.751Z,2.43
2019-01-31T23:02:23.059Z,2.43
2019-01-31T23:07:24.376Z,2.57
2019-01-31T23:12:25.481Z,2.17
2019-01-31T23:17:36.742Z,2.53
2019-01-31T23:22:29.575Z,2.23
2019-01-31T23:27:30.659Z,2.40
2019-01-31T23:32:31.770Z,2.53
2019-01-31T23:37:32.891Z,2.50
2019-01-31T23:42:33.982Z,2.90
2019-01-31T23:47:35.213Z,2.23
2019-01-31T23:52:36.318Z,2.70
2019-01-31T23:57:37.430Z,2.50
